createdAt,value
2022-08-01T00:02:09.636Z,99843.97
2022-08-01T00:04:40.834Z,99851.78
2022-08-01T00:07:11.558Z,99848.22
2022-08-01T00:09:41.942Z,99847.06
2022-08-01T00:12:12.680Z,99857.06
2022-08-01T00:14:42.276Z,99853.47
2022-08-01T00:17:12.851Z,99849.88
2022-08-01T00:19:43.395Z,99853.41
2022-08-01T00:22:14.156Z,99855.25
2022-08-01T00:24:44.704Z,99848.13
2022-08-01T00:27:15.220Z,99848.69
2022-08-01T00:30:12.816Z,99836.38
2022-08-01T00:32:36.330Z,99841.75
2022-08-01T00:35:07.031Z,99840.94
2022-08-01T00:37:38.188Z,99849.53
2022-08-01T00:40:10.327Z,99844.03
2022-08-01T00:42:43.658Z,99848.88
2022-08-01T00:45:15.150Z,99852.56
2022-08-01T00:47:46.413Z,99855.22
2022-08-01T00:50:17.827Z,99852.41
2022-08-01T00:52:51.207Z,99850.66
2022-08-01T00:55:22.743Z,99851.69
2022-08-01T00:58:05.007Z,99849.44
2022-08-01T01:00:52.515Z,99841.28
2022-08-01T01:06:36.652Z,99844.78
2022-08-01T01:09:07.720Z,99841.28
2022-08-01T01:12:01.290Z,99843.41
2022-08-01T01:14:49.225Z,99842.53
2022-08-01T01:17:41.944Z,99840.09
2022-08-01T01:20:18.813Z,99844.13
2022-08-01T01:22:56.661Z,99835.09
2022-08-01T01:25:36.610Z,99844.19
2022-08-01T01:28:24.041Z,99841.31
2022-08-01T01:30:56.807Z,99844.94
2022-08-01T01:33:34.407Z,99839.13
2022-08-01T01:36:11.774Z,99836.63
2022-08-01T01:38:47.404Z,99841.47
2022-08-01T01:41:20.976Z,99845.72
2022-08-01T01:43:54.221Z,99842.91
2022-08-01T01:46:29.811Z,99844.47
2022-08-01T01:49:03.190Z,99853.03
2022-08-01T01:51:35.373Z,99848.00
2022-08-01T01:54:09.067Z,99853.84
2022-08-01T01:56:51.321Z,99853.25
2022-08-01T01:59:28.970Z,99838.13
2022-08-01T02:02:06.653Z,99843.75
2022-08-01T02:04:39.181Z,99840.25
2022-08-01T02:07:15.257Z,99838.81
2022-08-01T02:09:48.731Z,99844.66
2022-08-01T02:12:22.263Z,99837.03
2022-08-01T02:14:56.470Z,99843.00
2022-08-01T02:17:31.249Z,99838.53
2022-08-01T02:20:02.826Z,99837.13
2022-08-01T02:22:41.718Z,99832.00
2022-08-01T02:25:34.776Z,99832.50
2022-08-01T02:28:19.144Z,99829.13
2022-08-01T02:30:53.102Z,99827.94
2022-08-01T02:33:41.778Z,99833.28
2022-08-01T02:36:30.276Z,99832.66
2022-08-01T02:39:11.417Z,99836.19
2022-08-01T02:41:46.450Z,99831.53
2022-08-01T02:44:27.884Z,99840.41
2022-08-01T02:47:04.902Z,99836.47
2022-08-01T02:49:57.465Z,99845.03
2022-08-01T02:52:31.620Z,99837.25
2022-08-01T02:55:07.602Z,99842.59
2022-08-01T02:57:52.397Z,99835.22
2022-08-01T03:00:24.817Z,99829.78
2022-08-01T03:03:00.347Z,99844.13
2022-08-01T03:05:31.594Z,99844.41
2022-08-01T03:08:06.538Z,99840.38
2022-08-01T03:10:49.618Z,99840.69
2022-08-01T03:13:27.530Z,99833.63
2022-08-01T03:16:00.611Z,99829.78
2022-08-01T03:18:33.949Z,99826.13
2022-08-01T03:21:07.385Z,99827.94
2022-08-01T03:23:41.050Z,99819.31
2022-08-01T03:26:13.853Z,99820.81
2022-08-01T03:28:47.783Z,99816.84
2022-08-01T03:31:19.884Z,99811.06
2022-08-01T03:33:53.715Z,99804.38
2022-08-01T03:36:31.873Z,99809.25
2022-08-01T03:39:06.647Z,99807.25
2022-08-01T03:41:44.026Z,99808.09
2022-08-01T03:44:19.509Z,99812.28
2022-08-01T03:47:03.108Z,99813.78
2022-08-01T03:49:46.311Z,99813.16
2022-08-01T03:52:35.137Z,99812.50
2022-08-01T03:55:14.181Z,99799.88
2022-08-01T03:57:49.792Z,99807.09
2022-08-01T04:00:21.280Z,99814.03
2022-08-01T04:03:18.615Z,99808.94
2022-08-01T04:06:01.939Z,99810.09
2022-08-01T04:08:47.163Z,99806.13
2022-08-01T04:11:30.817Z,99802.25
2022-08-01T04:14:01.331Z,99815.13
2022-08-01T04:16:43.335Z,99810.97
2022-08-01T04:19:26.515Z,99809.22
2022-08-01T04:22:10.281Z,99807.44
2022-08-01T04:24:56.548Z,99811.00
2022-08-01T04:27:50.646Z,99810.66
2022-08-01T04:30:37.165Z,99808.75
2022-08-01T04:33:13.954Z,99799.59
2022-08-01T04:36:02.243Z,99795.25
2022-08-01T04:38:44.244Z,99799.75
2022-08-01T04:41:35.937Z,99790.44
2022-08-01T04:44:13.382Z,99804.75
2022-08-01T04:46:59.946Z,99796.25
2022-08-01T04:49:48.476Z,99794.81
2022-08-01T04:52:31.937Z,99788.50
2022-08-01T04:55:05.644Z,99787.41
2022-08-01T04:57:40.654Z,99792.56
2022-08-01T05:00:13.186Z,99796.09
2022-08-01T05:02:44.375Z,99794.97
2022-08-01T05:05:20.234Z,99796.56
2022-08-01T05:07:51.400Z,99795.47
2022-08-01T05:10:26.263Z,99783.72
2022-08-01T05:12:57.721Z,99782.28
2022-08-01T05:15:32.472Z,99784.56
2022-08-01T05:18:08.636Z,99782.47
2022-08-01T05:20:46.104Z,99779.88
2022-08-01T05:23:36.552Z,99780.34
2022-08-01T05:26:16.443Z,99772.00
2022-08-01T05:28:59.148Z,99777.94
2022-08-01T05:31:36.685Z,99781.50
2022-08-01T05:34:14.977Z,99776.84
2022-08-01T05:36:48.503Z,99772.94
2022-08-01T05:39:22.321Z,99775.88
2022-08-01T05:41:55.830Z,99767.31
2022-08-01T05:44:27.809Z,99771.38
2022-08-01T05:47:03.490Z,99768.63
2022-08-01T05:49:40.319Z,99769.75
2022-08-01T05:52:20.698Z,99763.78
2022-08-01T05:54:52.218Z,99761.06
2022-08-01T05:57:28.812Z,99759.94
2022-08-01T06:00:04.359Z,99764.28
2022-08-01T06:02:47.704Z,99757.69
2022-08-01T06:05:39.143Z,99761.22
2022-08-01T06:08:10.372Z,99755.59
2022-08-01T06:10:41.633Z,99745.97
2022-08-01T06:13:18.056Z,99738.22
2022-08-01T06:15:50.232Z,99747.38
2022-08-01T06:18:21.562Z,99746.28
2022-08-01T07:01:21.620Z,99718.91
2022-08-01T07:40:29.942Z,99689.59
2022-08-01T07:43:04.612Z,99688.13
2022-08-01T07:48:41.846Z,99688.84
2022-08-01T07:51:21.113Z,99692.22
2022-08-01T07:55:09.348Z,99684.81
2022-08-01T07:57:30.773Z,99676.94
2022-08-01T08:00:09.422Z,99676.13
2022-08-01T08:03:58.769Z,99678.41
2022-08-01T08:07:12.907Z,99682.78
2022-08-01T08:20:36.418Z,99667.44
2022-08-01T08:26:43.829Z,99660.50
2022-08-01T08:29:37.654Z,99660.63
2022-08-01T08:35:40.113Z,99662.84
2022-08-01T08:38:21.212Z,99661.03
2022-08-01T08:44:05.602Z,99649.63
2022-08-01T08:46:46.241Z,99645.41
2022-08-01T08:49:21.874Z,99651.97
2022-08-01T08:51:58.549Z,99648.06
2022-08-01T08:54:40.641Z,99649.69
2022-08-01T08:57:19.313Z,99641.00
2022-08-01T08:59:50.649Z,99645.81
2022-08-01T09:02:25.562Z,99650.63
2022-08-01T09:05:01.422Z,99646.28
2022-08-01T09:07:33.039Z,99642.88
2022-08-01T09:10:04.206Z,99635.13
2022-08-01T09:12:35.693Z,99637.38
2022-08-01T09:15:07.489Z,99629.47
2022-08-01T09:17:45.241Z,99624.00
2022-08-01T09:20:26.948Z,99628.66
2022-08-01T09:22:58.237Z,99629.66
2022-08-01T09:34:14.555Z,99632.25
2022-08-01T09:37:00.830Z,99628.22
2022-08-01T09:39:39.155Z,99626.16
2022-08-01T09:42:31.352Z,99629.25
2022-08-01T09:45:04.277Z,99619.28
2022-08-01T09:47:44.522Z,99629.66
2022-08-01T09:50:19.816Z,99628.69
2022-08-01T09:53:01.135Z,99628.09
2022-08-01T09:55:35.455Z,99625.09
2022-08-01T09:58:11.534Z,99628.97
2022-08-01T10:01:22.529Z,99624.94
2022-08-01T10:04:16.849Z,99616.13
2022-08-01T10:10:21.661Z,99621.97
2022-08-01T10:13:14.628Z,99622.63
2022-08-01T10:15:46.342Z,99616.22
2022-08-01T10:18:25.975Z,99621.53
2022-08-01T10:21:02.658Z,99628.47
2022-08-01T10:23:41.325Z,99621.25
2022-08-01T10:26:17.703Z,99620.31
2022-08-01T10:28:53.430Z,99613.09
2022-08-01T10:31:31.469Z,99609.75
2022-08-01T10:34:03.226Z,99617.31
2022-08-01T10:36:40.853Z,99621.84
2022-08-01T10:39:13.489Z,99618.78
2022-08-01T10:41:45.132Z,99625.56
2022-08-01T10:44:19.199Z,99621.75
2022-08-01T10:46:57.687Z,99629.31
2022-08-01T10:49:35.053Z,99627.56
2022-08-01T10:52:06.759Z,99621.47
2022-08-01T10:54:52.015Z,99630.97
2022-08-01T10:57:27.571Z,99630.66
2022-08-01T11:00:05.011Z,99629.22
2022-08-01T11:02:45.779Z,99631.31
2022-08-01T11:05:24.739Z,99625.22
2022-08-01T11:08:01.455Z,99637.41
2022-08-01T11:10:54.281Z,99631.63
2022-08-01T11:14:03.597Z,99633.06
2022-08-01T11:16:45.322Z,99633.56
2022-08-01T11:19:17.587Z,99638.06
2022-08-01T11:22:02.124Z,99631.63
2022-08-01T11:25:01.247Z,99630.69
2022-08-01T11:27:41.835Z,99642.56
2022-08-01T11:30:13.721Z,99643.19
2022-08-01T11:33:10.619Z,99649.31
2022-08-01T11:36:31.991Z,99640.91
2022-08-01T11:39:16.259Z,99644.63
2022-08-01T11:41:48.863Z,99647.19
2022-08-01T11:44:30.245Z,99645.06
2022-08-01T11:47:13.636Z,99635.44
2022-08-01T11:49:52.047Z,99648.28
2022-08-01T11:52:32.528Z,99655.50
2022-08-01T11:55:11.444Z,99650.66
2022-08-01T11:57:42.942Z,99659.81
2022-08-01T12:00:19.780Z,99654.69
2022-08-01T12:03:01.663Z,99659.47
2022-08-01T12:05:43.294Z,99668.78
2022-08-01T12:08:14.879Z,99671.66
2022-08-01T12:11:02.298Z,99680.16
2022-08-01T12:13:47.372Z,99671.78
2022-08-01T12:16:19.561Z,99673.56
2022-08-01T12:18:55.438Z,99675.78
2022-08-01T12:21:26.491Z,99672.34
2022-08-01T12:24:05.561Z,99682.47
2022-08-01T12:26:45.694Z,99685.03
2022-08-01T12:29:35.606Z,99695.28
2022-08-01T12:32:07.893Z,99688.34
2022-08-01T12:34:43.002Z,99692.81
2022-08-01T12:37:20.915Z,99697.28
2022-08-01T12:39:51.369Z,99706.09
2022-08-01T12:42:25.812Z,99713.31
2022-08-01T12:45:10.861Z,99719.84
2022-08-01T12:47:46.246Z,99707.44
2022-08-01T12:50:23.690Z,99719.50
2022-08-01T12:53:04.831Z,99719.00
2022-08-01T12:55:59.438Z,99731.00
2022-08-01T12:58:36.257Z,99726.16
2022-08-01T13:01:15.700Z,99729.31
2022-08-01T13:04:06.772Z,99735.28
2022-08-01T13:06:38.342Z,99734.25
2022-08-01T13:09:12.044Z,99745.16
2022-08-01T13:11:56.264Z,99747.09
2022-08-01T13:14:44.036Z,99752.06
2022-08-01T13:17:34.950Z,99753.16
2022-08-01T13:20:10.624Z,99754.59
2022-08-01T13:22:47.233Z,99750.53
2022-08-01T13:25:27.563Z,99751.69
2022-08-01T13:31:51.198Z,99748.09
2022-08-01T13:34:46.864Z,99763.78
2022-08-01T13:37:28.868Z,99756.25
2022-08-01T13:40:46.204Z,99768.25
2022-08-01T13:43:57.524Z,99775.94
2022-08-01T13:46:29.669Z,99772.72
2022-08-01T13:52:25.770Z,99771.69
2022-08-01T13:55:36.575Z,99780.72
2022-08-01T13:58:27.149Z,99784.03
2022-08-01T14:01:34.611Z,99789.28
2022-08-01T14:04:28.050Z,99799.16
2022-08-01T14:10:51.618Z,99806.06
2022-08-01T14:13:45.199Z,99803.13
2022-08-01T14:16:18.133Z,99812.94
2022-08-01T14:18:49.591Z,99813.53
2022-08-01T14:21:21.888Z,99812.50
2022-08-01T14:23:53.666Z,99823.41
2022-08-01T14:26:25.127Z,99826.44
2022-08-01T14:29:00.165Z,99825.59
2022-08-01T14:31:34.258Z,99826.22
2022-08-01T14:34:12.356Z,99831.69
2022-08-01T14:36:48.441Z,99828.94
2022-08-01T14:39:54.363Z,99826.53
2022-08-01T14:43:18.212Z,99841.53
2022-08-01T14:46:07.549Z,99837.53
2022-08-01T14:48:53.487Z,99828.84
2022-08-01T14:51:43.999Z,99847.09
2022-08-01T14:54:35.465Z,99846.59
2022-08-01T14:57:40.094Z,99849.09
2022-08-01T15:00:46.005Z,99860.00
2022-08-01T15:04:05.204Z,99862.53
2022-08-01T15:07:08.208Z,99862.03
2022-08-01T15:10:12.922Z,99866.47
2022-08-01T15:13:03.754Z,99869.97
2022-08-01T15:15:51.158Z,99875.22
2022-08-01T15:18:28.125Z,99883.69
2022-08-01T15:21:46.681Z,99874.19
2022-08-01T15:27:35.673Z,99877.03
2022-08-01T15:30:11.115Z,99873.78
2022-08-01T15:32:45.207Z,99883.06
2022-08-01T15:35:16.758Z,99879.84
2022-08-01T15:37:47.730Z,99878.81
2022-08-01T15:40:19.410Z,99880.72
2022-08-01T15:42:50.504Z,99882.16
2022-08-01T15:45:46.532Z,99881.63
2022-08-01T15:48:14.789Z,99877.28
2022-08-01T15:51:08.861Z,99871.91
2022-08-01T15:53:57.152Z,99878.94
2022-08-01T15:56:38.957Z,99878.75
2022-08-01T15:59:11.310Z,99870.06
2022-08-01T16:02:29.552Z,99864.91
2022-08-01T16:08:30.587Z,99861.78
2022-08-01T16:11:54.217Z,99863.19
2022-08-01T16:14:31.726Z,99877.09
2022-08-01T16:17:05.130Z,99873.03
2022-08-01T16:19:46.484Z,99872.81
2022-08-01T16:22:20.356Z,99877.47
2022-08-01T16:25:00.883Z,99877.75
2022-08-01T16:27:38.666Z,99876.47
2022-08-01T16:30:16.891Z,99883.78
2022-08-01T16:33:41.278Z,99883.28
2022-08-01T16:36:17.336Z,99882.78
2022-08-01T16:39:04.675Z,99882.25
2022-08-01T16:41:37.659Z,99888.78
2022-08-01T16:44:11.986Z,99867.94
2022-08-01T16:46:46.350Z,99872.03
2022-08-01T16:55:50.392Z,99861.56
2022-08-01T16:58:33.903Z,99870.31
2022-08-01T17:01:58.737Z,99866.25
2022-08-01T17:03:59.522Z,99866.84
2022-08-01T17:06:32.986Z,99857.03
2022-08-01T17:09:06.134Z,99865.19
2022-08-01T17:11:37.124Z,99871.72
2022-08-01T17:14:11.058Z,99880.72
2022-08-01T17:16:41.956Z,99879.88
2022-08-01T17:19:14.800Z,99878.00
2022-08-01T17:21:46.037Z,99869.00
2022-08-01T17:24:18.124Z,99872.06
2022-08-01T17:26:49.120Z,99878.28
2022-08-01T17:29:23.184Z,99884.81
2022-08-01T17:31:54.012Z,99883.72
2022-08-01T17:34:25.188Z,99877.50
2022-08-01T17:36:56.358Z,99875.84
2022-08-01T17:39:38.521Z,99874.22
2022-08-01T17:42:12.425Z,99875.56
2022-08-01T17:44:48.955Z,99879.38
2022-08-01T17:47:41.259Z,99875.06
2022-08-01T17:50:14.666Z,99875.06
2022-08-01T17:52:45.625Z,99881.06
2022-08-01T17:55:55.966Z,99879.16
2022-08-01T17:58:07.996Z,99884.59
2022-08-01T18:00:40.806Z,99883.28
2022-08-01T18:03:13.746Z,99881.66
2022-08-01T18:05:44.858Z,99884.38
2022-08-01T18:08:16.315Z,99879.75
2022-08-01T18:10:49.798Z,99885.50
2022-08-01T18:13:20.529Z,99878.13
2022-08-01T18:15:52.384Z,99870.56
2022-08-01T18:18:33.441Z,99871.38
2022-08-01T18:21:04.946Z,99876.59
2022-08-01T18:23:36.768Z,99870.34
2022-08-01T18:26:11.031Z,99879.59
2022-08-01T18:28:46.621Z,99882.63
2022-08-01T18:31:18.987Z,99865.50
2022-08-01T18:33:50.570Z,99862.25
2022-08-01T18:36:33.284Z,99861.25
2022-08-01T18:39:10.374Z,99858.53
2022-08-01T18:41:40.913Z,99860.41
2022-08-01T18:44:11.760Z,99861.53
2022-08-01T18:46:42.418Z,99861.81
2022-08-01T18:49:14.921Z,99866.16
2022-08-01T18:51:46.691Z,99875.91
2022-08-01T18:54:19.371Z,99882.16
2022-08-01T18:56:49.956Z,99878.13
2022-08-01T18:59:21.779Z,99879.44
2022-08-01T19:01:53.627Z,99878.91
2022-08-01T19:04:24.638Z,99876.50
2022-08-01T19:06:55.044Z,99863.81
2022-08-01T19:09:26.210Z,99865.41
2022-08-01T19:11:56.774Z,99865.72
2022-08-01T19:14:26.976Z,99875.47
2022-08-01T19:16:57.949Z,99878.75
2022-08-01T19:19:28.737Z,99882.31
2022-08-01T19:21:59.692Z,99883.69
2022-08-01T19:24:30.701Z,99884.81
2022-08-01T19:27:09.117Z,99876.94
2022-08-01T19:29:44.241Z,99878.81
2022-08-01T19:32:14.526Z,99867.16
2022-08-01T19:34:55.914Z,99869.38
2022-08-01T19:37:27.498Z,99872.38
2022-08-01T19:39:59.389Z,99876.72
2022-08-01T19:42:31.644Z,99870.44
2022-08-01T19:45:06.334Z,99877.28
2022-08-01T19:47:55.960Z,99878.38
2022-08-01T19:50:29.160Z,99881.38
2022-08-01T19:53:03.434Z,99885.22
2022-08-01T19:55:39.867Z,99894.16
2022-08-01T19:58:28.708Z,99887.94
2022-08-01T20:00:58.633Z,99885.22
2022-08-01T20:03:29.554Z,99893.66
2022-08-01T20:06:04.542Z,99891.00
2022-08-01T20:08:36.778Z,99888.53
2022-08-01T20:11:13.285Z,99895.06
2022-08-01T20:13:44.592Z,99895.38
2022-08-01T20:16:15.251Z,99892.13
2022-08-01T20:18:45.639Z,99896.44
2022-08-01T20:21:18.116Z,99887.50
2022-08-01T20:23:51.814Z,99888.31
2022-08-01T20:26:23.910Z,99899.16
2022-08-01T20:28:56.232Z,99897.56
2022-08-01T20:31:38.469Z,99904.09
2022-08-01T20:34:18.640Z,99904.38
2022-08-01T20:36:56.376Z,99905.78
2022-08-01T20:39:28.736Z,99907.97
2022-08-01T20:41:59.955Z,99906.34
2022-08-01T20:44:35.167Z,99911.78
2022-08-01T20:47:09.035Z,99910.75
2022-08-01T20:49:40.175Z,99910.75
2022-08-01T20:52:11.989Z,99910.75
2022-08-01T20:54:44.883Z,99908.88
2022-08-01T20:57:26.755Z,99912.38
2022-08-01T21:00:07.262Z,99909.44
2022-08-01T21:03:05.991Z,99907.00
2022-08-01T21:05:55.891Z,99904.91
2022-08-01T21:08:34.832Z,99904.59
2022-08-01T21:11:08.153Z,99905.97
2022-08-01T21:13:47.058Z,99910.66
2022-08-01T21:16:25.032Z,99913.66
2022-08-01T21:19:19.136Z,99908.50
2022-08-01T21:22:11.236Z,99912.03
2022-08-01T21:24:58.011Z,99918.03
2022-08-01T21:27:34.223Z,99916.69
2022-08-01T21:30:07.818Z,99921.31
2022-08-01T21:32:39.337Z,99927.31
2022-08-01T21:35:16.407Z,99931.44
2022-08-01T21:37:52.864Z,99932.22
2022-08-01T21:40:24.918Z,99934.13
2022-08-01T21:42:56.648Z,99941.97
2022-08-01T21:45:28.668Z,99939.84
2022-08-01T21:48:01.195Z,99943.38
2022-08-01T21:50:46.079Z,99948.22
2022-08-01T21:53:32.010Z,99942.53
2022-08-01T21:56:14.933Z,99948.75
2022-08-01T21:58:57.616Z,99949.84
2022-08-01T22:01:54.047Z,99956.66
2022-08-01T22:04:42.794Z,99958.25
2022-08-01T22:07:18.246Z,99961.53
2022-08-01T22:09:51.939Z,99960.41
2022-08-01T22:12:23.494Z,99964.75
2022-08-01T22:14:57.972Z,99962.00
2022-08-01T22:17:28.849Z,99962.78
2022-08-01T22:19:59.140Z,99947.91
2022-08-01T22:22:51.521Z,99955.69
2022-08-01T22:25:25.605Z,99951.09
2022-08-01T22:28:08.367Z,99952.41
2022-08-01T22:30:43.931Z,99957.28
2022-08-01T22:33:17.022Z,99960.50
2022-08-01T22:35:56.771Z,99960.75
2022-08-01T22:38:27.230Z,99951.53
2022-08-01T22:41:07.839Z,99952.28
2022-08-01T22:43:51.599Z,99953.59
2022-08-01T22:46:33.995Z,99951.41
2022-08-01T22:49:39.826Z,99943.50
2022-08-01T22:52:19.622Z,99940.78
2022-08-01T22:54:53.561Z,99944.81
2022-08-01T22:57:37.984Z,99935.28
2022-08-01T23:00:11.592Z,99937.69
2022-08-01T23:02:57.782Z,99944.19
2022-08-01T23:05:28.412Z,99947.91
2022-08-01T23:07:58.771Z,99953.28
2022-08-01T23:10:28.919Z,99955.97
2022-08-01T23:13:01.955Z,99958.91
2022-08-01T23:15:33.050Z,99954.78
2022-08-01T23:18:06.152Z,99958.56
2022-08-01T23:20:36.968Z,99969.66
2022-08-01T23:23:08.227Z,99962.53
2022-08-01T23:25:40.704Z,99963.56
2022-08-01T23:28:11.501Z,99958.34
2022-08-01T23:30:42.591Z,99949.91
2022-08-01T23:33:15.200Z,99953.34
2022-08-01T23:35:45.716Z,99947.34
2022-08-01T23:38:17.407Z,99956.25
2022-08-01T23:40:47.625Z,99951.66
2022-08-01T23:43:18.017Z,99955.72
2022-08-01T23:46:02.372Z,99957.91
2022-08-01T23:48:36.940Z,99969.00
2022-08-01T23:51:09.351Z,99975.78
2022-08-01T23:53:41.591Z,99980.88
2022-08-01T23:56:17.990Z,99980.31
2022-08-01T23:58:51.202Z,99977.00
